Time;durP1;ratioP1;P1;durP2;ratioP2;P2;SDS_P1;SDS_P2;PMS_P1;PMS_P2;Temp;Humidity;BMP_temperature;BMP_pressure;BME280_temperature;BME280_humidity;BME280_pressure;Samples;Min_cycle;Max_cycle;Signal;HPM_P1;HPM_P2
2021/09/22 00:00:18;;;;;;;5.72;3.10;;;9.70;99.90;;;;;;6145028;23;20498;-90
2021/09/22 00:02:44;;;;;;;8.93;3.90;;;9.60;99.90;;;;;;6145081;23;20010;-89
2021/09/22 00:05:11;;;;;;;6.13;3.72;;;9.70;99.90;;;;;;6145508;23;20414;-90
2021/09/22 00:07:37;;;;;;;4.65;3.38;;;9.80;99.90;;;;;;6145127;23;20024;-90
2021/09/22 00:10:09;;;;;;;5.47;3.55;;;9.70;99.90;;;;;;6120704;23;20013;-89
2021/09/22 00:12:36;;;;;;;4.90;4.05;;;9.70;99.90;;;;;;6120430;23;20009;-90
2021/09/22 00:15:04;;;;;;;6.80;4.13;;;9.60;99.90;;;;;;6120504;23;20009;-89
2021/09/22 00:17:29;;;;;;;6.50;3.72;;;9.50;99.90;;;;;;6144897;23;20060;-90
2021/09/22 00:19:55;;;;;;;5.43;4.00;;;9.50;99.90;;;;;;6169919;23;20012;-90
2021/09/22 00:22:21;;;;;;;5.32;3.60;;;9.50;99.90;;;;;;6145059;23;20009;-90
2021/09/22 00:24:46;;;;;;;4.85;3.35;;;9.50;99.90;;;;;;6145342;23;20002;-90
2021/09/22 00:27:12;;;;;;;6.80;4.07;;;9.50;99.90;;;;;;6144770;23;20014;-90
2021/09/22 00:29:37;;;;;;;6.40;3.70;;;9.50;99.90;;;;;;6145441;23;20285;-90
2021/09/22 00:32:03;;;;;;;5.15;3.17;;;9.50;99.90;;;;;;6145004;23;20029;-90
2021/09/22 00:34:29;;;;;;;5.50;3.47;;;9.50;99.90;;;;;;6144933;23;20033;-90
2021/09/22 00:36:55;;;;;;;8.00;4.32;;;9.40;99.90;;;;;;6144654;23;20092;-90
2021/09/22 00:39:20;;;;;;;6.10;4.00;;;9.40;99.90;;;;;;6144887;23;19998;-90
2021/09/22 00:41:46;;;;;;;5.82;3.92;;;9.40;99.90;;;;;;6144788;23;20017;-90
2021/09/22 00:44:45;;;;;;;6.85;3.75;;;9.30;99.90;;;;;;6144575;23;20005;-89
2021/09/22 00:47:13;;;;;;;5.65;3.90;;;9.30;99.90;;;;;;6138866;23;20025;-90
2021/09/22 00:49:39;;;;;;;6.82;4.05;;;9.30;99.90;;;;;;6139345;23;20006;-90
2021/09/22 00:52:05;;;;;;;5.57;4.05;;;9.30;99.90;;;;;;6138817;23;20014;-90
2021/09/22 00:54:30;;;;;;;7.03;4.30;;;9.20;99.90;;;;;;6139311;23;20081;-90
2021/09/22 00:56:56;;;;;;;4.45;3.45;;;9.10;99.90;;;;;;6114228;23;20471;-90
2021/09/22 00:59:23;;;;;;;5.38;3.75;;;9.10;99.90;;;;;;6114238;23;20006;-89
2021/09/22 01:01:50;;;;;;;5.97;4.20;;;9.00;99.90;;;;;;6138597;23;20090;-90
2021/09/22 01:04:16;;;;;;;6.15;4.00;;;9.00;99.90;;;;;;6138804;23;20109;-90
2021/09/22 01:06:43;;;;;;;7.28;4.50;;;9.00;99.90;;;;;;6138759;23;20378;-90
2021/09/22 01:09:09;;;;;;;5.65;3.67;;;9.00;99.90;;;;;;6114378;23;20006;-89
2021/09/22 01:11:35;;;;;;;6.07;3.78;;;9.00;99.90;;;;;;6138660;23;20013;-91
2021/09/22 01:14:02;;;;;;;5.57;3.60;;;9.00;99.90;;;;;;6138258;23;20137;-90
2021/09/22 01:16:28;;;;;;;6.13;3.83;;;9.00;99.90;;;;;;6090170;23;20014;-90
2021/09/22 01:18:54;;;;;;;5.28;4.20;;;9.00;99.90;;;;;;6139318;23;20006;-90
2021/09/22 01:21:21;;;;;;;6.85;3.90;;;8.90;99.90;;;;;;6138936;23;20025;-91
2021/09/22 01:23:52;;;;;;;6.38;3.65;;;8.90;99.90;;;;;;6144176;23;20020;-90
2021/09/22 01:26:17;;;;;;;6.53;3.97;;;8.90;99.90;;;;;;6145029;23;20017;-89
2021/09/22 01:28:43;;;;;;;6.85;4.35;;;8.90;99.90;;;;;;6144634;23;20438;-90
2021/09/22 01:31:09;;;;;;;7.10;3.97;;;8.80;99.90;;;;;;6145000;23;20006;-91
2021/09/22 01:33:36;;;;;;;6.80;3.97;;;8.80;99.90;;;;;;6144707;23;20009;-91
2021/09/22 01:36:12;;;;;;;6.05;3.88;;;8.80;99.90;;;;;;6169468;23;20009;-91
2021/09/22 01:38:38;;;;;;;7.03;4.18;;;8.80;99.90;;;;;;6144680;23;20072;-90
2021/09/22 01:41:10;;;;;;;8.23;4.40;;;8.80;99.90;;;;;;6146163;23;20012;-91
2021/09/22 01:43:38;;;;;;;6.40;4.13;;;8.70;99.90;;;;;;6120379;23;20021;-91
2021/09/22 01:46:06;;;;;;;7.95;4.35;;;8.70;99.90;;;;;;6139872;23;20024;-90
2021/09/22 01:48:34;;;;;;;5.78;3.90;;;8.70;99.90;;;;;;6115980;23;20029;-91
2021/09/22 01:51:02;;;;;;;6.40;4.00;;;8.60;99.90;;;;;;6091750;23;20006;-90
2021/09/22 01:53:29;;;;;;;6.15;4.45;;;8.60;99.90;;;;;;6115281;23;20010;-90
2021/09/22 01:55:56;;;;;;;5.70;4.07;;;8.60;99.90;;;;;;6091720;23;20065;-90
2021/09/22 01:58:23;;;;;;;5.95;4.13;;;8.60;99.90;;;;;;6090813;23;20014;-91
2021/09/22 02:00:53;;;;;;;6.43;3.97;;;8.60;99.90;;;;;;6115869;23;20070;-90
2021/09/22 02:03:32;;;;;;;5.72;3.75;;;8.60;99.90;;;;;;6114803;23;20021;-91
2021/09/22 02:06:07;;;;;;;8.55;4.80;;;8.50;99.90;;;;;;6139957;23;20021;-91
2021/09/22 02:08:33;;;;;;;6.93;4.60;;;8.50;99.90;;;;;;6091499;23;20392;-91
2021/09/22 02:11:07;;;;;;;5.93;3.70;;;8.50;99.90;;;;;;6093032;23;20376;-90
2021/09/22 02:13:35;;;;;;;7.35;4.35;;;8.50;99.90;;;;;;6115215;23;20017;-90
2021/09/22 02:16:04;;;;;;;7.47;4.78;;;8.40;99.90;;;;;;6115430;23;20058;-90
2021/09/22 02:18:29;;;;;;;7.47;4.63;;;8.40;99.90;;;;;;6115403;23;20022;-91
2021/09/22 02:20:56;;;;;;;7.30;4.97;;;8.40;99.90;;;;;;6091396;23;20443;-90
2021/09/22 02:23:25;;;;;;;7.47;4.33;;;8.40;99.90;;;;;;6114877;23;20016;-91
2021/09/22 02:25:53;;;;;;;7.93;4.65;;;8.40;99.90;;;;;;6091410;23;20241;-90
2021/09/22 02:28:19;;;;;;;10.20;5.35;;;8.40;99.90;;;;;;6091009;23;20153;-91
2021/09/22 02:30:46;;;;;;;7.07;4.35;;;8.40;99.90;;;;;;6091277;23;20006;-91
2021/09/22 02:33:12;;;;;;;9.07;5.20;;;8.40;99.90;;;;;;6091310;23;20010;-91
2021/09/22 02:35:41;;;;;;;8.93;5.57;;;8.40;99.90;;;;;;6090980;23;20064;-90
2021/09/22 02:38:20;;;;;;;9.27;5.57;;;8.30;99.90;;;;;;6093813;23;20009;-90
2021/09/22 02:40:48;;;;;;;10.95;6.03;;;8.30;99.90;;;;;;6091346;23;20041;-91
2021/09/22 02:43:21;;;;;;;11.90;6.20;;;8.30;99.90;;;;;;6092559;23;20010;-91
2021/09/22 02:45:46;;;;;;;11.70;5.85;;;8.30;99.90;;;;;;6105133;23;20060;-91
2021/09/22 02:48:13;;;;;;;10.05;5.78;;;8.20;99.90;;;;;;6119668;23;20020;-90
2021/09/22 02:50:39;;;;;;;10.52;6.13;;;8.20;99.90;;;;;;6144466;23;20029;-91
2021/09/22 02:53:08;;;;;;;12.63;7.55;;;8.20;99.90;;;;;;6168907;23;20057;-89
2021/09/22 02:55:34;;;;;;;9.60;5.82;;;8.20;99.90;;;;;;6144733;23;20041;-91
2021/09/22 02:58:00;;;;;;;10.57;5.70;;;8.20;99.90;;;;;;6168908;23;20416;-91
2021/09/22 03:00:27;;;;;;;9.30;6.10;;;8.20;99.90;;;;;;6168911;23;20001;-91
2021/09/22 03:02:55;;;;;;;9.30;6.30;;;8.20;99.90;;;;;;6144947;23;20049;-91
2021/09/22 03:05:21;;;;;;;8.32;5.13;;;8.20;99.90;;;;;;6144195;23;20006;-91
2021/09/22 03:07:46;;;;;;;10.95;5.53;;;8.20;99.90;;;;;;6144132;23;20379;-91
2021/09/22 03:10:13;;;;;;;9.63;4.75;;;8.20;99.90;;;;;;6144201;23;20009;-90
2021/09/22 03:12:39;;;;;;;8.70;5.30;;;8.20;99.90;;;;;;6147030;23;20014;-90
2021/09/22 03:15:05;;;;;;;9.35;6.10;;;8.20;99.90;;;;;;6147568;23;20008;-90
2021/09/22 03:17:32;;;;;;;11.35;6.53;;;8.20;99.90;;;;;;6147596;23;20072;-90
2021/09/22 03:19:57;;;;;;;10.13;5.70;;;8.20;99.90;;;;;;6147352;23;20009;-90
2021/09/22 03:22:26;;;;;;;9.25;5.40;;;8.30;99.90;;;;;;6146213;23;20009;-90
2021/09/22 03:25:07;;;;;;;10.20;5.72;;;8.20;99.90;;;;;;6149139;23;20009;-90
2021/09/22 03:27:34;;;;;;;9.00;5.85;;;8.20;99.90;;;;;;6146132;23;20021;-90
2021/09/22 03:30:00;;;;;;;10.20;5.95;;;8.20;99.90;;;;;;6170465;23;20009;-90
2021/09/22 03:32:26;;;;;;;9.45;5.40;;;8.20;99.90;;;;;;6145698;23;20017;-90
2021/09/22 03:34:52;;;;;;;8.95;6.00;;;8.20;99.90;;;;;;6145761;23;20005;-90
2021/09/22 03:37:18;;;;;;;12.55;5.53;;;8.20;99.90;;;;;;6145805;23;20009;-89
2021/09/22 03:39:43;;;;;;;11.35;6.05;;;8.10;99.90;;;;;;6145822;23;20002;-90
2021/09/22 03:42:09;;;;;;;12.00;6.35;;;8.10;99.90;;;;;;6145697;23;20013;-91
2021/09/22 03:44:35;;;;;;;11.40;6.05;;;8.10;99.90;;;;;;6145562;23;20008;-89
2021/09/22 03:47:01;;;;;;;9.90;5.60;;;8.00;99.90;;;;;;6133925;23;20054;-90
2021/09/22 03:49:27;;;;;;;10.50;5.60;;;8.00;99.90;;;;;;6111459;23;20078;-91
2021/09/22 03:51:59;;;;;;;10.55;6.45;;;8.00;99.90;;;;;;6088653;23;20030;-90
2021/09/22 03:54:25;;;;;;;10.60;5.85;;;8.00;99.90;;;;;;6105866;23;20060;-90
2021/09/22 03:56:52;;;;;;;11.15;7.00;;;8.00;99.90;;;;;;6116258;23;20074;-90
2021/09/22 03:59:18;;;;;;;8.68;5.63;;;8.00;99.90;;;;;;6116120;23;20033;-89
2021/09/22 04:01:44;;;;;;;12.25;5.63;;;8.00;99.90;;;;;;6116301;23;20009;-90
2021/09/22 04:04:11;;;;;;;9.13;5.45;;;8.00;99.90;;;;;;6116160;23;20089;-90
2021/09/22 04:06:38;;;;;;;11.73;6.05;;;7.90;99.90;;;;;;6116641;23;20065;-90
2021/09/22 04:09:04;;;;;;;10.55;6.38;;;7.90;99.90;;;;;;6116421;23;20010;-90
2021/09/22 04:11:34;;;;;;;11.57;7.38;;;7.90;99.90;;;;;;6116026;23;20010;-89
2021/09/22 04:13:59;;;;;;;11.05;6.35;;;7.90;99.90;;;;;;6116123;23;20021;-90
2021/09/22 04:16:28;;;;;;;10.40;6.00;;;7.90;99.90;;;;;;6116183;23;20092;-90
2021/09/22 04:18:53;;;;;;;10.65;6.63;;;7.80;99.90;;;;;;6116054;23;20002;-90
2021/09/22 04:21:20;;;;;;;10.90;6.00;;;7.90;99.90;;;;;;6140593;23;20431;-90
2021/09/22 04:23:46;;;;;;;13.10;6.75;;;7.90;99.90;;;;;;6116154;23;20061;-90
2021/09/22 04:26:11;;;;;;;10.35;6.13;;;7.80;99.90;;;;;;6115004;23;20033;-91
2021/09/22 04:28:42;;;;;;;10.73;5.80;;;7.80;99.90;;;;;;6115537;23;20041;-89
2021/09/22 04:31:26;;;;;;;11.15;6.35;;;7.90;99.90;;;;;;6118642;23;20021;-89
2021/09/22 04:34:10;;;;;;;12.05;6.32;;;7.80;99.90;;;;;;6119512;23;20085;-89
2021/09/22 04:36:55;;;;;;;11.02;5.88;;;7.80;99.90;;;;;;6119470;23;20082;-88
2021/09/22 04:39:39;;;;;;;10.25;5.28;;;7.80;99.90;;;;;;6118098;23;20258;-89
2021/09/22 04:42:23;;;;;;;9.63;5.53;;;7.80;99.90;;;;;;6119379;23;20029;-89
2021/09/22 04:45:08;;;;;;;10.52;5.32;;;7.80;99.90;;;;;;6119128;23;20037;-89
2021/09/22 04:47:54;;;;;;;11.20;6.35;;;7.80;99.90;;;;;;6119344;23;20072;-90
2021/09/22 04:50:39;;;;;;;9.30;5.85;;;7.80;99.90;;;;;;6119413;23;20021;-88
2021/09/22 04:53:23;;;;;;;10.40;5.75;;;7.80;99.90;;;;;;6119193;23;20061;-89
2021/09/22 04:56:12;;;;;;;11.80;6.70;;;7.80;99.90;;;;;;6105723;23;20021;-90
2021/09/22 04:58:56;;;;;;;12.77;7.35;;;7.80;99.90;;;;;;6119574;23;20020;-89
2021/09/22 05:01:40;;;;;;;12.68;7.50;;;7.80;99.90;;;;;;6119222;23;20539;-88
2021/09/22 05:04:24;;;;;;;13.48;7.85;;;7.80;99.90;;;;;;6119132;23;20048;-89
2021/09/22 05:07:08;;;;;;;10.05;6.93;;;7.80;99.90;;;;;;6140792;23;20053;-89
2021/09/22 05:09:53;;;;;;;14.77;8.40;;;7.70;99.90;;;;;;6118913;23;20064;-88
2021/09/22 05:12:37;;;;;;;13.57;8.45;;;7.80;99.90;;;;;;6119171;23;20028;-89
2021/09/22 05:15:21;;;;;;;13.82;8.27;;;7.70;99.90;;;;;;6118749;23;20021;-89
2021/09/22 05:18:06;;;;;;;14.52;8.45;;;7.70;99.90;;;;;;6118951;23;20025;-89
2021/09/22 05:20:50;;;;;;;14.93;8.00;;;7.70;99.90;;;;;;6118185;23;20082;-89
2021/09/22 05:23:34;;;;;;;13.10;8.45;;;7.70;99.90;;;;;;6119286;23;20025;-89
2021/09/22 05:26:18;;;;;;;14.88;8.57;;;7.60;99.90;;;;;;6118689;23;20032;-89
2021/09/22 05:29:03;;;;;;;14.32;8.55;;;7.60;99.90;;;;;;6119278;23;20017;-88
2021/09/22 05:31:47;;;;;;;15.55;9.68;;;7.60;99.90;;;;;;6119074;23;20025;-87
2021/09/22 05:34:32;;;;;;;14.82;8.63;;;7.60;99.90;;;;;;6119125;23;20021;-88
2021/09/22 05:37:16;;;;;;;14.57;8.23;;;7.60;99.90;;;;;;6118296;23;20020;-87
2021/09/22 05:40:00;;;;;;;12.48;7.97;;;7.70;99.90;;;;;;6119303;23;20086;-88
2021/09/22 05:42:44;;;;;;;14.63;7.80;;;7.70;99.90;;;;;;6118044;23;20343;-88
2021/09/22 05:45:30;;;;;;;15.90;9.60;;;7.80;99.90;;;;;;6117833;23;20033;-88
2021/09/22 05:48:14;;;;;;;16.45;9.45;;;7.80;99.90;;;;;;6118136;23;20056;-88
2021/09/22 05:50:58;;;;;;;13.65;9.07;;;7.80;99.90;;;;;;6117834;23;20020;-87
2021/09/22 05:53:44;;;;;;;17.55;9.93;;;7.80;99.90;;;;;;6117920;23;20060;-87
2021/09/22 05:56:28;;;;;;;16.05;8.85;;;7.90;99.90;;;;;;6070407;23;20064;-88
2021/09/22 05:59:12;;;;;;;17.17;9.27;;;8.00;99.90;;;;;;6117603;23;20277;-90
2021/09/22 06:01:57;;;;;;;17.17;9.52;;;8.00;99.90;;;;;;6117554;23;20024;-90
2021/09/22 06:04:41;;;;;;;16.50;9.63;;;8.10;99.90;;;;;;6117655;23;20072;-90
2021/09/22 06:07:27;;;;;;;14.70;8.98;;;8.20;99.90;;;;;;6102833;23;20038;-91
2021/09/22 06:10:15;;;;;;;14.90;8.95;;;8.30;99.90;;;;;;6118345;23;20021;-89
2021/09/22 06:12:55;;;;;;;16.77;10.30;;;8.40;99.90;;;;;;6116795;23;20006;-89
2021/09/22 06:15:21;;;;;;;17.02;9.48;;;8.40;99.90;;;;;;6113808;23;20041;-91
2021/09/22 06:17:46;;;;;;;15.20;9.32;;;8.50;99.90;;;;;;6089835;23;20450;-91
2021/09/22 06:20:13;;;;;;;16.40;10.15;;;8.70;99.90;;;;;;6113962;23;20017;-93
2021/09/22 06:22:39;;;;;;;16.63;10.43;;;8.70;99.90;;;;;;6114191;23;20388;-89
2021/09/22 06:25:05;;;;;;;14.70;8.77;;;8.90;99.90;;;;;;6113999;23;20010;-91
2021/09/22 06:27:33;;;;;;;14.93;9.32;;;9.00;99.90;;;;;;6114159;23;20026;-92
2021/09/22 06:29:58;;;;;;;15.77;9.57;;;9.00;99.90;;;;;;6113687;23;20002;-91
2021/09/22 06:32:24;;;;;;;15.02;9.43;;;8.90;99.90;;;;;;6138197;23;20045;-90
2021/09/22 06:35:25;;;;;;;15.73;9.98;;;9.00;99.90;;;;;;6115601;23;20186;-92
2021/09/22 06:38:13;;;;;;;15.32;9.63;;;9.20;99.90;;;;;;6118529;23;20088;-91
2021/09/22 06:40:44;;;;;;;19.08;12.15;;;9.30;99.90;;;;;;6115013;23;20034;-90
2021/09/22 06:43:10;;;;;;;18.30;11.77;;;9.40;99.90;;;;;;6113730;23;20006;-91
2021/09/22 06:45:36;;;;;;;18.58;12.45;;;9.60;99.90;;;;;;6113648;23;20336;-91
2021/09/22 06:48:02;;;;;;;18.20;12.23;;;9.60;99.90;;;;;;6091393;23;20447;-91
2021/09/22 06:50:29;;;;;;;20.05;12.95;;;9.70;99.90;;;;;;6140442;23;20347;-92
2021/09/22 06:52:55;;;;;;;17.98;12.43;;;9.80;99.90;;;;;;6091609;23;20025;-92
2021/09/22 06:55:20;;;;;;;21.45;14.82;;;10.00;99.90;;;;;;6116121;23;20033;-90
2021/09/22 06:57:46;;;;;;;23.58;14.88;;;10.10;99.90;;;;;;6116227;23;20061;-92
2021/09/22 07:00:13;;;;;;;22.90;14.95;;;10.20;99.90;;;;;;6116395;23;20011;-92
2021/09/22 07:02:39;;;;;;;27.45;16.05;;;10.20;99.90;;;;;;6140100;23;20010;-93
2021/09/22 07:05:07;;;;;;;25.77;15.98;;;10.30;99.90;;;;;;6115835;23;20462;-91
2021/09/22 07:07:33;;;;;;;23.75;16.20;;;10.50;99.90;;;;;;6115317;23;20037;-93
2021/09/22 07:09:59;;;;;;;25.60;15.95;;;10.60;99.90;;;;;;6115941;23;20021;-92
2021/09/22 07:12:24;;;;;;;24.80;16.40;;;10.70;99.90;;;;;;6115658;23;20010;-92
2021/09/22 07:14:50;;;;;;;28.27;16.60;;;10.70;99.90;;;;;;6115797;23;20010;-92
2021/09/22 07:17:17;;;;;;;24.65;15.93;;;10.80;99.90;;;;;;6115728;23;20009;-91
2021/09/22 07:19:44;;;;;;;23.55;16.73;;;10.90;99.90;;;;;;6115977;23;20012;-92
2021/09/22 07:22:09;;;;;;;27.65;16.20;;;11.00;99.90;;;;;;6110423;23;20055;-91
2021/09/22 07:24:35;;;;;;;24.13;16.77;;;11.00;99.90;;;;;;6132979;23;20014;-92
2021/09/22 07:27:01;;;;;;;27.08;17.98;;;11.10;99.90;;;;;;6110861;23;20062;-93
2021/09/22 07:29:27;;;;;;;27.33;17.65;;;11.20;99.90;;;;;;6086488;23;20374;-93
2021/09/22 07:31:53;;;;;;;28.75;18.65;;;11.40;99.90;;;;;;6091084;23;20001;-93
2021/09/22 07:34:19;;;;;;;26.48;19.05;;;11.50;99.90;;;;;;6110416;23;20033;-92
2021/09/22 07:36:44;;;;;;;25.63;17.88;;;11.50;99.90;;;;;;6136436;23;20031;-93
2021/09/22 07:39:10;;;;;;;25.00;17.70;;;11.60;99.90;;;;;;6115531;23;20065;-93
2021/09/22 07:41:36;;;;;;;25.35;17.45;;;11.70;99.90;;;;;;6091286;23;20096;-92
2021/09/22 07:44:02;;;;;;;25.35;18.92;;;11.80;99.90;;;;;;6115496;23;20010;-93
2021/09/22 07:46:28;;;;;;;27.90;19.38;;;11.90;99.90;;;;;;6115314;23;20024;-92
2021/09/22 07:48:53;;;;;;;28.05;19.75;;;12.00;99.90;;;;;;6115755;23;20057;-91
2021/09/22 07:51:19;;;;;;;26.08;18.95;;;12.00;99.90;;;;;;6115718;23;20017;-93
2021/09/22 07:53:45;;;;;;;31.40;19.40;;;12.10;99.90;;;;;;6115815;23;20002;-94
2021/09/22 07:56:10;;;;;;;30.48;19.73;;;12.30;99.90;;;;;;6115915;23;20104;-92
2021/09/22 07:58:36;;;;;;;28.45;17.83;;;12.50;99.90;;;;;;6115070;23;20512;-93
2021/09/22 08:01:02;;;;;;;32.00;21.10;;;12.80;99.90;;;;;;6115432;23;20006;-94
2021/09/22 08:03:28;;;;;;;31.88;22.05;;;13.10;99.90;;;;;;6115276;23;20006;-93
2021/09/22 08:05:54;;;;;;;30.90;21.48;;;13.30;99.90;;;;;;6141447;23;20021;-93
2021/09/22 08:08:20;;;;;;;33.42;22.38;;;13.50;99.90;;;;;;6091511;23;20048;-93
2021/09/22 08:10:47;;;;;;;31.02;21.70;;;13.50;99.90;;;;;;6091322;23;20010;-93
2021/09/22 08:13:13;;;;;;;26.35;18.60;;;13.60;99.90;;;;;;6114937;23;20017;-93
2021/09/22 08:15:39;;;;;;;26.90;19.73;;;13.80;99.90;;;;;;6112378;23;20010;-93
2021/09/22 08:18:05;;;;;;;29.00;20.77;;;13.80;99.90;;;;;;6115160;23;20065;-94
2021/09/22 08:20:31;;;;;;;27.77;20.38;;;13.90;99.90;;;;;;6091359;23;20006;-94
2021/09/22 08:22:57;;;;;;;27.40;19.95;;;14.00;99.90;;;;;;6115095;23;20010;-94
2021/09/22 08:25:23;;;;;;;31.15;21.00;;;14.20;99.90;;;;;;6140289;23;20010;-95
2021/09/22 08:27:48;;;;;;;28.05;20.38;;;14.40;99.90;;;;;;6091636;23;20125;-95
2021/09/22 08:30:16;;;;;;;28.45;19.40;;;14.60;99.90;;;;;;6139851;23;20098;-95
2021/09/22 08:32:42;;;;;;;25.80;17.63;;;14.80;99.90;;;;;;6115256;23;20014;-94
2021/09/22 08:35:09;;;;;;;24.88;17.73;;;15.10;99.90;;;;;;6110132;23;20010;-94
2021/09/22 08:37:35;;;;;;;27.52;19.50;;;15.30;99.90;;;;;;6083965;23;20009;-94
2021/09/22 08:40:01;;;;;;;34.25;24.15;;;15.50;99.90;;;;;;6115248;23;20016;-96
2021/09/22 08:42:28;;;;;;;34.05;25.15;;;15.10;99.90;;;;;;6110193;23;20012;-95
2021/09/22 08:44:54;;;;;;;31.23;21.85;;;15.00;99.90;;;;;;6098097;23;20014;-95
2021/09/22 08:47:20;;;;;;;29.90;21.50;;;15.10;99.90;;;;;;6134283;23;20019;-95
2021/09/22 08:49:51;;;;;;;27.35;18.98;;;15.10;99.90;;;;;;6138411;23;20011;-93
2021/09/22 08:52:17;;;;;;;23.65;17.00;;;15.50;99.90;;;;;;6109991;23;20010;-93
2021/09/22 08:54:45;;;;;;;22.75;16.45;;;15.60;99.90;;;;;;6136157;23;20066;-93
2021/09/22 08:57:12;;;;;;;19.95;15.05;;;15.80;99.90;;;;;;6110235;23;20014;-93
2021/09/22 08:59:38;;;;;;;21.70;15.55;;;15.80;99.90;;;;;;6111913;23;20061;-93
2021/09/22 09:02:04;;;;;;;22.02;16.35;;;15.70;99.90;;;;;;6140069;23;20010;-94
2021/09/22 09:04:30;;;;;;;17.73;13.27;;;15.80;99.90;;;;;;6139686;23;20006;-92
2021/09/22 09:06:57;;;;;;;28.38;19.60;;;16.10;99.90;;;;;;6114776;23;20049;-93
2021/09/22 09:09:36;;;;;;;19.90;14.02;;;15.80;99.90;;;;;;6090607;23;20006;-93
2021/09/22 09:12:03;;;;;;;19.88;14.00;;;16.50;99.90;;;;;;6114758;23;20014;-93
2021/09/22 09:14:34;;;;;;;25.38;19.63;;;16.40;99.90;;;;;;6114610;23;20037;-94
2021/09/22 09:17:01;;;;;;;25.63;16.30;;;15.80;99.90;;;;;;6114787;23;20009;-93
2021/09/22 09:19:27;;;;;;;20.58;14.85;;;16.40;99.90;;;;;;6139297;23;20036;-93
2021/09/22 09:22:09;;;;;;;15.98;11.18;;;16.70;99.90;;;;;;6114745;23;20017;-92
2021/09/22 09:24:43;;;;;;;14.15;10.45;;;17.00;99.90;;;;;;6110953;23;20014;-92
2021/09/22 09:27:32;;;;;;;14.35;10.20;;;17.30;99.90;;;;;;6114062;23;20020;-92
2021/09/22 09:29:58;;;;;;;14.45;10.80;;;17.60;99.90;;;;;;6114696;23;20017;-93
2021/09/22 09:32:28;;;;;;;15.80;10.05;;;17.40;99.90;;;;;;6114064;23;20016;-93
2021/09/22 09:35:09;;;;;;;26.23;17.63;;;17.00;99.90;;;;;;6109639;23;20017;-93
2021/09/22 09:37:40;;;;;;;16.40;11.43;;;16.80;99.90;;;;;;6131455;23;20011;-93
2021/09/22 09:40:30;;;;;;;16.83;12.10;;;17.20;99.90;;;;;;6114021;23;20006;-95
2021/09/22 09:43:01;;;;;;;;;;;17.00;99.90;;;;;;6109803;23;20064;-94
2021/09/22 09:45:39;;;;;;;16.27;11.85;;;17.20;99.90;;;;;;6078120;23;19912;-93
2021/09/22 09:48:22;;;;;;;19.52;13.60;;;17.50;99.90;;;;;;6095093;23;20079;-91
2021/09/22 09:50:52;;;;;;;14.07;10.48;;;17.70;99.90;;;;;;6084650;23;20010;-94
2021/09/22 09:53:27;;;;;;;14.88;10.93;;;18.00;99.90;;;;;;6109776;23;20069;-93
2021/09/22 09:55:54;;;;;;;14.57;10.65;;;18.10;99.90;;;;;;6061205;23;20432;-93
2021/09/22 09:58:21;;;;;;;11.30;9.20;;;18.00;99.90;;;;;;6085336;23;20010;-93
2021/09/22 10:00:49;;;;;;;17.30;12.02;;;18.30;99.90;;;;;;6085663;23;20021;-93
2021/09/22 10:03:20;;;;;;;13.98;11.70;;;18.00;99.90;;;;;;6109444;23;20014;-93
2021/09/22 10:05:52;;;;;;;22.92;14.90;;;18.00;99.90;;;;;;6109593;23;20035;-93
2021/09/22 10:08:21;;;;;;;22.13;13.75;;;17.30;99.90;;;;;;6085406;23;20025;-89
2021/09/22 10:10:49;;;;;;;17.83;12.02;;;17.50;99.90;;;;;;6109005;23;20101;-91
2021/09/22 10:13:16;;;;;;;20.05;11.60;;;17.50;99.90;;;;;;6085140;23;20010;-90
2021/09/22 10:15:44;;;;;;;18.30;10.93;;;17.60;99.90;;;;;;6084953;23;20011;-92
2021/09/22 10:18:10;;;;;;;15.43;10.80;;;17.70;99.90;;;;;;6085014;23;20019;-91
2021/09/22 10:20:41;;;;;;;16.63;10.80;;;17.60;99.90;;;;;;6085489;23;20015;-92
2021/09/22 10:23:09;;;;;;;17.98;10.90;;;17.40;99.90;;;;;;6109197;23;20038;-90
2021/09/22 10:25:35;;;;;;;14.15;9.32;;;17.50;99.90;;;;;;6109785;23;20005;-92
2021/09/22 10:28:03;;;;;;;15.30;8.95;;;17.50;99.90;;;;;;6085573;23;20023;-93
2021/09/22 10:30:44;;;;;;;18.35;11.18;;;17.90;99.90;;;;;;6061516;23;20415;-89
2021/09/22 10:33:32;;;;;;;16.77;10.57;;;17.50;99.90;;;;;;6085535;23;20038;-91
2021/09/22 10:35:59;;;;;;;14.93;8.98;;;17.60;99.90;;;;;;6084947;23;20007;-91
2021/09/22 10:38:28;;;;;;;9.43;6.82;;;17.70;99.90;;;;;;6085274;23;20010;-92
2021/09/22 10:41:02;;;;;;;12.82;8.27;;;18.10;99.90;;;;;;6084966;23;20010;-92
2021/09/22 10:43:38;;;;;;;12.52;7.95;;;18.60;99.90;;;;;;6085360;23;20061;-92
2021/09/22 10:46:07;;;;;;;10.57;6.03;;;18.60;99.90;;;;;;6065219;23;20014;-92
2021/09/22 10:48:34;;;;;;;9.73;5.88;;;19.10;99.90;;;;;;6105434;23;20014;-93
2021/09/22 10:51:06;;;;;;;10.75;5.40;;;19.40;99.90;;;;;;6109394;23;20011;-94
2021/09/22 10:53:32;;;;;;;9.48;5.43;;;19.20;99.90;;;;;;6085749;23;20015;-94
2021/09/22 10:56:15;;;;;;;7.55;4.60;;;19.30;99.90;;;;;;6085878;23;20007;-94
2021/09/22 10:58:52;;;;;;;7.88;4.78;;;19.60;99.90;;;;;;6110238;23;20021;-94
2021/09/22 11:01:44;;;;;;;11.40;7.97;;;19.30;99.90;;;;;;6061640;23;20010;-95
2021/09/22 11:04:13;;;;;;;14.75;10.02;;;19.00;99.90;;;;;;6060569;23;20010;-93
2021/09/22 11:09:12;;;;;;;16.55;10.65;;;18.30;99.90;;;;;;6086753;23;20022;-95
2021/09/22 11:11:53;;;;;;;12.50;8.13;;;18.30;99.90;;;;;;6109077;23;20002;-93
2021/09/22 11:14:34;;;;;;;12.90;7.53;;;18.60;99.90;;;;;;6109366;23;20093;-92
2021/09/22 11:17:14;;;;;;;15.23;9.77;;;19.20;99.90;;;;;;6109275;23;20141;-92
2021/09/22 11:19:43;;;;;;;15.32;9.85;;;18.60;99.90;;;;;;6109371;23;20014;-93
2021/09/22 11:22:21;;;;;;;12.32;8.68;;;18.60;99.90;;;;;;6109034;23;20016;-93
2021/09/22 11:24:47;;;;;;;17.55;11.95;;;18.90;99.90;;;;;;6108923;23;20093;-92
2021/09/22 11:27:19;;;;;;;15.25;10.27;;;18.90;99.90;;;;;;6108968;23;20096;-94
2021/09/22 11:29:48;;;;;;;13.10;10.05;;;18.90;99.90;;;;;;6109217;23;20037;-92
2021/09/22 11:32:34;;;;;;;17.02;10.45;;;18.80;99.90;;;;;;6084620;23;20010;-93
2021/09/22 11:35:10;;;;;;;17.65;11.00;;;18.60;99.90;;;;;;6111689;23;20006;-92
2021/09/22 11:37:56;;;;;;;11.32;7.43;;;19.00;99.90;;;;;;6110809;23;20013;-91
2021/09/22 11:40:26;;;;;;;9.65;6.75;;;19.90;99.90;;;;;;6110696;23;20022;-93
2021/09/22 11:43:07;;;;;;;10.82;6.10;;;19.70;99.90;;;;;;6110651;23;20010;-93
2021/09/22 11:45:37;;;;;;;10.85;8.07;;;20.20;99.90;;;;;;6086496;23;20002;-93
2021/09/22 11:48:03;;;;;;;8.05;5.75;;;19.90;99.90;;;;;;6086248;23;20042;-93
2021/09/22 11:50:34;;;;;;;13.75;7.90;;;20.40;99.90;;;;;;6086229;23;20010;-94
2021/09/22 11:53:00;;;;;;;14.93;8.27;;;20.40;99.90;;;;;;6081876;23;20015;-94
2021/09/22 11:55:26;;;;;;;15.30;9.43;;;20.00;99.90;;;;;;6081901;23;20007;-95
2021/09/22 11:57:52;;;;;;;13.52;9.25;;;19.20;99.90;;;;;;6061892;23;20006;-93
2021/09/22 12:00:20;;;;;;;12.15;8.27;;;19.00;99.90;;;;;;6086495;23;20052;-93
2021/09/22 12:02:46;;;;;;;11.50;7.90;;;19.30;99.90;;;;;;6086686;23;20011;-93
2021/09/22 12:05:18;;;;;;;16.80;9.13;;;19.70;99.90;;;;;;6086457;23;20138;-93
2021/09/22 12:07:45;;;;;;;11.63;7.93;;;19.20;99.90;;;;;;6085902;23;20026;-93
2021/09/22 12:10:11;;;;;;;15.68;9.18;;;19.70;99.90;;;;;;6086282;23;20074;-92
2021/09/22 12:12:38;;;;;;;13.82;8.85;;;19.60;99.90;;;;;;6085829;23;20034;-93
2021/09/22 12:15:06;;;;;;;16.42;9.02;;;19.20;99.90;;;;;;6086360;23;20006;-93
2021/09/22 12:17:35;;;;;;;12.98;8.82;;;19.40;99.90;;;;;;6086190;23;20014;-93
2021/09/22 12:20:02;;;;;;;11.57;7.30;;;19.70;99.90;;;;;;6061871;23;20013;-92
2021/09/22 12:22:32;;;;;;;10.02;6.95;;;19.50;99.90;;;;;;6085977;23;20038;-93
2021/09/22 12:24:58;;;;;;;14.38;9.95;;;19.80;99.90;;;;;;6086203;23;20006;-92
2021/09/22 12:27:26;;;;;;;17.33;10.30;;;19.40;99.90;;;;;;6081452;23;20022;-93
2021/09/22 12:29:55;;;;;;;13.70;9.15;;;19.20;99.90;;;;;;6085809;23;20432;-93
2021/09/22 12:32:25;;;;;;;9.48;6.65;;;19.40;99.90;;;;;;6085534;23;20030;-92
2021/09/22 12:34:51;;;;;;;6.13;4.20;;;20.00;99.90;;;;;;6062042;23;20007;-92
2021/09/22 12:37:21;;;;;;;9.27;4.97;;;20.00;99.90;;;;;;6085800;23;20013;-95
2021/09/22 12:40:05;;;;;;;12.00;7.18;;;20.20;99.90;;;;;;6086442;23;20498;-94
2021/09/22 12:42:47;;;;;;;11.05;7.40;;;20.00;99.90;;;;;;6087588;23;20099;-90
2021/09/22 12:45:22;;;;;;;9.07;6.13;;;19.60;99.90;;;;;;6086091;23;20003;-92
2021/09/22 12:47:57;;;;;;;13.07;8.30;;;20.10;99.90;;;;;;6061892;23;20018;-89
2021/09/22 12:50:41;;;;;;;8.65;6.22;;;19.70;99.90;;;;;;6084256;23;20038;-89
2021/09/22 12:53:14;;;;;;;11.55;6.95;;;19.80;99.90;;;;;;6100184;23;20011;-93
2021/09/22 12:55:43;;;;;;;12.18;7.65;;;19.70;99.90;;;;;;6085989;23;20010;-94
2021/09/22 12:58:10;;;;;;;13.27;7.63;;;19.70;99.90;;;;;;6085502;23;20046;-91
2021/09/22 13:00:53;;;;;;;10.93;6.97;;;19.50;99.90;;;;;;6085123;23;20014;-92
2021/09/22 13:03:31;;;;;;;12.55;6.60;;;19.80;99.90;;;;;;6085551;23;20066;-93